Terminal Aerodrome Forecast
Issued by NWS

Home | Current Version | Previous Version | Text Only | Print | Product List | Glossary On
Versions: 1 2 3 4 5 6 7 8 9 10 11 12 13 14 15 16 17
000
FTUS41 KBGM 302320
TAFITH
TAF
KITH 302320Z 0100/0124 11007KT P6SM OVC015
      TEMPO 0100/0104 4SM -SHRA OVC007
     FM010500 12005KT P6SM OVC015
      TEMPO 0105/0109 4SM -SHRA OVC007
     FM010900 12006KT P6SM BKN015 PROB30 0114/0118 4SM -SHRA OVC003
     FM011800 13008KT P6SM OVC008 PROB30 0118/0124 2SM -SHRA OVC003=

USA.gov is the U.S. government's official web portal to all federal, state and local government web resources and services.